sensor_id;sensor_type;location;lat;lon;timestamp;P1;durP1;ratioP1;P2;durP2;ratioP2
1975;SDS011;988;48.016;7.800;2022-09-29T00:01:03;18.37;;;17.13;;
1975;SDS011;988;48.016;7.800;2022-09-29T00:03:30;15.02;;;14.32;;
1975;SDS011;988;48.016;7.800;2022-09-29T00:05:56;16.80;;;15.40;;
1975;SDS011;988;48.016;7.800;2022-09-29T00:08:23;13.50;;;12.63;;
1975;SDS011;988;48.016;7.800;2022-09-29T00:10:51;14.25;;;13.30;;
1975;SDS011;988;48.016;7.800;2022-09-29T00:13:17;14.50;;;13.80;;
1975;SDS011;988;48.016;7.800;2022-09-29T00:15:43;13.57;;;12.88;;
1975;SDS011;988;48.016;7.800;2022-09-29T00:18:09;11.50;;;10.80;;
1975;SDS011;988;48.016;7.800;2022-09-29T00:20:35;14.10;;;12.03;;
1975;SDS011;988;48.016;7.800;2022-09-29T00:23:01;12.80;;;11.90;;
1975;SDS011;988;48.016;7.800;2022-09-29T00:25:28;12.70;;;11.90;;
1975;SDS011;988;48.016;7.800;2022-09-29T00:27:54;10.95;;;10.25;;
1975;SDS011;988;48.016;7.800;2022-09-29T00:30:20;11.97;;;11.20;;
1975;SDS011;988;48.016;7.800;2022-09-29T00:32:45;10.20;;;9.60;;
1975;SDS011;988;48.016;7.800;2022-09-29T00:35:11;11.30;;;10.47;;
1975;SDS011;988;48.016;7.800;2022-09-29T00:37:36;12.33;;;11.70;;
1975;SDS011;988;48.016;7.800;2022-09-29T00:40:02;12.73;;;12.07;;
1975;SDS011;988;48.016;7.800;2022-09-29T00:42:29;12.60;;;11.95;;
1975;SDS011;988;48.016;7.800;2022-09-29T00:45:01;12.38;;;11.68;;
1975;SDS011;988;48.016;7.800;2022-09-29T00:47:28;13.05;;;12.35;;
1975;SDS011;988;48.016;7.800;2022-09-29T00:50:04;12.98;;;12.00;;
1975;SDS011;988;48.016;7.800;2022-09-29T00:52:49;13.50;;;12.90;;
1975;SDS011;988;48.016;7.800;2022-09-29T00:55:22;15.00;;;14.20;;
1975;SDS011;988;48.016;7.800;2022-09-29T00:57:53;15.80;;;15.10;;
1975;SDS011;988;48.016;7.800;2022-09-29T01:00:20;15.27;;;14.48;;
1975;SDS011;988;48.016;7.800;2022-09-29T01:02:51;15.57;;;14.77;;
1975;SDS011;988;48.016;7.800;2022-09-29T01:05:26;18.13;;;17.23;;
1975;SDS011;988;48.016;7.800;2022-09-29T01:07:56;16.30;;;15.40;;
1975;SDS011;988;48.016;7.800;2022-09-29T01:10:25;17.70;;;16.60;;
1975;SDS011;988;48.016;7.800;2022-09-29T01:12:51;16.57;;;15.77;;
1975;SDS011;988;48.016;7.800;2022-09-29T01:15:18;16.75;;;15.85;;
1975;SDS011;988;48.016;7.800;2022-09-29T01:17:45;15.80;;;14.82;;
1975;SDS011;988;48.016;7.800;2022-09-29T01:20:17;13.60;;;12.55;;
1975;SDS011;988;48.016;7.800;2022-09-29T01:34:33;14.07;;;13.02;;
1975;SDS011;988;48.016;7.800;2022-09-29T01:37:26;14.55;;;13.75;;
1975;SDS011;988;48.016;7.800;2022-09-29T01:40:43;14.07;;;13.00;;
1975;SDS011;988;48.016;7.800;2022-09-29T01:43:15;12.43;;;11.63;;
1975;SDS011;988;48.016;7.800;2022-09-29T01:45:55;12.63;;;12.02;;
1975;SDS011;988;48.016;7.800;2022-09-29T01:48:45;14.23;;;13.13;;
1975;SDS011;988;48.016;7.800;2022-09-29T01:51:15;14.02;;;13.23;;
1975;SDS011;988;48.016;7.800;2022-09-29T01:53:49;13.27;;;12.68;;
1975;SDS011;988;48.016;7.800;2022-09-29T01:56:24;14.05;;;13.02;;
1975;SDS011;988;48.016;7.800;2022-09-29T01:58:57;14.95;;;13.80;;
1975;SDS011;988;48.016;7.800;2022-09-29T02:01:30;14.27;;;13.48;;
1975;SDS011;988;48.016;7.800;2022-09-29T02:04:03;14.10;;;13.13;;
1975;SDS011;988;48.016;7.800;2022-09-29T02:06:38;14.65;;;13.88;;
1975;SDS011;988;48.016;7.800;2022-09-29T02:09:12;14.13;;;13.25;;
1975;SDS011;988;48.016;7.800;2022-09-29T02:11:43;14.98;;;13.98;;
1975;SDS011;988;48.016;7.800;2022-09-29T02:14:12;13.60;;;12.80;;
1975;SDS011;988;48.016;7.800;2022-09-29T02:16:42;13.55;;;12.75;;
1975;SDS011;988;48.016;7.800;2022-09-29T02:21:47;13.80;;;13.10;;
1975;SDS011;988;48.016;7.800;2022-09-29T02:24:13;15.15;;;13.73;;
1975;SDS011;988;48.016;7.800;2022-09-29T02:26:39;13.10;;;12.40;;
1975;SDS011;988;48.016;7.800;2022-09-29T02:29:06;14.55;;;13.77;;
1975;SDS011;988;48.016;7.800;2022-09-29T02:31:33;15.77;;;14.35;;
1975;SDS011;988;48.016;7.800;2022-09-29T02:34:01;13.43;;;12.73;;
1975;SDS011;988;48.016;7.800;2022-09-29T02:39:25;14.48;;;13.77;;
1975;SDS011;988;48.016;7.800;2022-09-29T02:47:55;16.13;;;15.13;;
1975;SDS011;988;48.016;7.800;2022-09-29T02:50:39;15.35;;;14.65;;
1975;SDS011;988;48.016;7.800;2022-09-29T02:53:28;15.75;;;14.95;;
1975;SDS011;988;48.016;7.800;2022-09-29T02:58:52;14.70;;;14.00;;
1975;SDS011;988;48.016;7.800;2022-09-29T03:01:22;14.75;;;14.05;;
1975;SDS011;988;48.016;7.800;2022-09-29T03:03:48;14.30;;;13.50;;
1975;SDS011;988;48.016;7.800;2022-09-29T03:06:14;13.90;;;13.30;;
1975;SDS011;988;48.016;7.800;2022-09-29T03:08:43;13.90;;;13.00;;
1975;SDS011;988;48.016;7.800;2022-09-29T03:11:09;13.27;;;12.43;;
1975;SDS011;988;48.016;7.800;2022-09-29T03:13:34;12.93;;;12.13;;
1975;SDS011;988;48.016;7.800;2022-09-29T03:16:00;11.57;;;10.97;;
1975;SDS011;988;48.016;7.800;2022-09-29T03:18:25;11.23;;;10.50;;
1975;SDS011;988;48.016;7.800;2022-09-29T03:20:52;10.80;;;10.30;;
1975;SDS011;988;48.016;7.800;2022-09-29T03:23:19;11.52;;;10.55;;
1975;SDS011;988;48.016;7.800;2022-09-29T03:25:45;12.88;;;12.18;;
1975;SDS011;988;48.016;7.800;2022-09-29T03:28:10;12.30;;;11.60;;
1975;SDS011;988;48.016;7.800;2022-09-29T03:30:36;14.17;;;13.07;;
1975;SDS011;988;48.016;7.800;2022-09-29T03:33:01;12.50;;;11.60;;
1975;SDS011;988;48.016;7.800;2022-09-29T03:35:27;12.97;;;12.27;;
1975;SDS011;988;48.016;7.800;2022-09-29T03:37:57;13.00;;;12.25;;
1975;SDS011;988;48.016;7.800;2022-09-29T03:40:23;12.32;;;11.25;;
1975;SDS011;988;48.016;7.800;2022-09-29T03:42:49;11.77;;;10.98;;
1975;SDS011;988;48.016;7.800;2022-09-29T03:45:15;11.93;;;10.60;;
1975;SDS011;988;48.016;7.800;2022-09-29T03:47:40;14.20;;;12.60;;
1975;SDS011;988;48.016;7.800;2022-09-29T03:50:06;12.53;;;11.70;;
1975;SDS011;988;48.016;7.800;2022-09-29T03:52:32;13.20;;;12.40;;
1975;SDS011;988;48.016;7.800;2022-09-29T03:54:58;12.33;;;10.23;;
1975;SDS011;988;48.016;7.800;2022-09-29T03:57:24;12.25;;;11.48;;
1975;SDS011;988;48.016;7.800;2022-09-29T03:59:50;13.53;;;12.50;;
1975;SDS011;988;48.016;7.800;2022-09-29T04:02:16;12.95;;;12.00;;
1975;SDS011;988;48.016;7.800;2022-09-29T04:04:43;12.88;;;12.18;;
1975;SDS011;988;48.016;7.800;2022-09-29T04:07:09;15.20;;;14.13;;
1975;SDS011;988;48.016;7.800;2022-09-29T04:09:35;15.47;;;14.60;;
1975;SDS011;988;48.016;7.800;2022-09-29T04:12:00;15.27;;;14.20;;
1975;SDS011;988;48.016;7.800;2022-09-29T04:14:26;15.23;;;14.47;;
1975;SDS011;988;48.016;7.800;2022-09-29T04:16:51;15.30;;;14.33;;
1975;SDS011;988;48.016;7.800;2022-09-29T04:19:17;14.03;;;13.03;;
1975;SDS011;988;48.016;7.800;2022-09-29T04:21:43;16.00;;;15.10;;
1975;SDS011;988;48.016;7.800;2022-09-29T04:24:08;15.53;;;14.40;;
1975;SDS011;988;48.016;7.800;2022-09-29T04:26:34;14.80;;;13.90;;
1975;SDS011;988;48.016;7.800;2022-09-29T04:28:59;17.30;;;16.10;;
1975;SDS011;988;48.016;7.800;2022-09-29T04:31:25;14.90;;;14.10;;
1975;SDS011;988;48.016;7.800;2022-09-29T04:33:51;16.23;;;15.23;;
1975;SDS011;988;48.016;7.800;2022-09-29T04:36:16;17.10;;;15.63;;
1975;SDS011;988;48.016;7.800;2022-09-29T04:38:42;15.50;;;14.50;;
1975;SDS011;988;48.016;7.800;2022-09-29T04:41:07;15.93;;;14.57;;
1975;SDS011;988;48.016;7.800;2022-09-29T04:43:33;15.57;;;14.63;;
1975;SDS011;988;48.016;7.800;2022-09-29T04:46:05;16.07;;;14.97;;
1975;SDS011;988;48.016;7.800;2022-09-29T04:48:32;16.02;;;14.80;;
1975;SDS011;988;48.016;7.800;2022-09-29T04:50:58;16.47;;;15.47;;
1975;SDS011;988;48.016;7.800;2022-09-29T04:53:23;15.93;;;14.97;;
1975;SDS011;988;48.016;7.800;2022-09-29T04:55:49;14.10;;;13.00;;
1975;SDS011;988;48.016;7.800;2022-09-29T04:58:15;15.40;;;14.60;;
1975;SDS011;988;48.016;7.800;2022-09-29T05:00:40;14.30;;;13.60;;
1975;SDS011;988;48.016;7.800;2022-09-29T05:03:06;15.07;;;14.27;;
1975;SDS011;988;48.016;7.800;2022-09-29T05:05:31;14.87;;;13.97;;
1975;SDS011;988;48.016;7.800;2022-09-29T05:07:57;17.87;;;16.70;;
1975;SDS011;988;48.016;7.800;2022-09-29T05:10:23;14.65;;;13.68;;
1975;SDS011;988;48.016;7.800;2022-09-29T05:12:50;16.90;;;16.05;;
1975;SDS011;988;48.016;7.800;2022-09-29T05:15:16;16.40;;;15.30;;
1975;SDS011;988;48.016;7.800;2022-09-29T05:17:42;16.13;;;15.18;;
1975;SDS011;988;48.016;7.800;2022-09-29T05:20:08;16.67;;;15.87;;
1975;SDS011;988;48.016;7.800;2022-09-29T05:22:34;15.25;;;14.35;;
1975;SDS011;988;48.016;7.800;2022-09-29T05:25:00;16.80;;;15.90;;
1975;SDS011;988;48.016;7.800;2022-09-29T05:27:26;15.70;;;14.90;;
1975;SDS011;988;48.016;7.800;2022-09-29T05:29:51;18.03;;;17.17;;
1975;SDS011;988;48.016;7.800;2022-09-29T05:32:17;17.57;;;16.57;;
1975;SDS011;988;48.016;7.800;2022-09-29T05:34:43;19.93;;;18.93;;
1975;SDS011;988;48.016;7.800;2022-09-29T05:37:09;19.83;;;18.33;;
1975;SDS011;988;48.016;7.800;2022-09-29T05:39:35;20.05;;;19.08;;
1975;SDS011;988;48.016;7.800;2022-09-29T05:42:01;16.92;;;16.02;;
1975;SDS011;988;48.016;7.800;2022-09-29T05:44:30;18.50;;;17.65;;
1975;SDS011;988;48.016;7.800;2022-09-29T05:46:55;18.97;;;17.53;;
1975;SDS011;988;48.016;7.800;2022-09-29T05:49:21;19.20;;;18.00;;
1975;SDS011;988;48.016;7.800;2022-09-29T05:51:47;18.70;;;17.70;;
1975;SDS011;988;48.016;7.800;2022-09-29T05:54:13;19.27;;;17.97;;
1975;SDS011;988;48.016;7.800;2022-09-29T05:56:38;18.50;;;17.40;;
1975;SDS011;988;48.016;7.800;2022-09-29T05:59:04;18.43;;;17.47;;
1975;SDS011;988;48.016;7.800;2022-09-29T06:01:30;16.87;;;15.87;;
1975;SDS011;988;48.016;7.800;2022-09-29T06:03:57;16.75;;;15.85;;
1975;SDS011;988;48.016;7.800;2022-09-29T06:06:24;17.90;;;16.83;;
1975;SDS011;988;48.016;7.800;2022-09-29T06:08:51;16.33;;;15.43;;
1975;SDS011;988;48.016;7.800;2022-09-29T06:11:18;17.60;;;16.48;;
1975;SDS011;988;48.016;7.800;2022-09-29T06:13:46;18.85;;;17.65;;
1975;SDS011;988;48.016;7.800;2022-09-29T06:16:14;17.38;;;16.30;;
1975;SDS011;988;48.016;7.800;2022-09-29T06:18:41;17.90;;;16.90;;
1975;SDS011;988;48.016;7.800;2022-09-29T06:21:08;17.83;;;16.90;;
1975;SDS011;988;48.016;7.800;2022-09-29T06:23:35;18.70;;;17.80;;
1975;SDS011;988;48.016;7.800;2022-09-29T06:26:02;19.63;;;18.42;;
1975;SDS011;988;48.016;7.800;2022-09-29T06:28:30;21.13;;;20.05;;
1975;SDS011;988;48.016;7.800;2022-09-29T06:31:00;22.33;;;20.98;;
1975;SDS011;988;48.016;7.800;2022-09-29T06:33:36;22.92;;;21.63;;
1975;SDS011;988;48.016;7.800;2022-09-29T06:38:59;22.35;;;20.95;;
1975;SDS011;988;48.016;7.800;2022-09-29T06:41:25;21.97;;;20.73;;
1975;SDS011;988;48.016;7.800;2022-09-29T06:43:52;22.13;;;20.95;;
1975;SDS011;988;48.016;7.800;2022-09-29T06:46:19;23.40;;;21.90;;
1975;SDS011;988;48.016;7.800;2022-09-29T06:48:46;21.50;;;19.93;;
1975;SDS011;988;48.016;7.800;2022-09-29T06:51:11;22.50;;;21.30;;
1975;SDS011;988;48.016;7.800;2022-09-29T06:53:38;29.13;;;26.80;;
1975;SDS011;988;48.016;7.800;2022-09-29T06:56:04;27.83;;;25.87;;
1975;SDS011;988;48.016;7.800;2022-09-29T06:58:31;23.30;;;22.10;;
1975;SDS011;988;48.016;7.800;2022-09-29T07:01:00;24.47;;;23.07;;
1975;SDS011;988;48.016;7.800;2022-09-29T07:03:27;23.43;;;22.03;;
1975;SDS011;988;48.016;7.800;2022-09-29T07:05:54;23.73;;;22.33;;
1975;SDS011;988;48.016;7.800;2022-09-29T07:08:19;23.20;;;21.40;;
1975;SDS011;988;48.016;7.800;2022-09-29T07:10:45;24.10;;;22.70;;
1975;SDS011;988;48.016;7.800;2022-09-29T07:13:12;22.93;;;21.83;;
1975;SDS011;988;48.016;7.800;2022-09-29T07:15:38;24.17;;;22.73;;
1975;SDS011;988;48.016;7.800;2022-09-29T07:18:03;24.90;;;23.50;;
1975;SDS011;988;48.016;7.800;2022-09-29T07:20:29;24.40;;;23.20;;
1975;SDS011;988;48.016;7.800;2022-09-29T07:22:56;25.37;;;24.07;;
1975;SDS011;988;48.016;7.800;2022-09-29T07:25:22;25.70;;;24.20;;
1975;SDS011;988;48.016;7.800;2022-09-29T07:27:48;27.37;;;25.87;;
1975;SDS011;988;48.016;7.800;2022-09-29T07:30:15;26.17;;;24.70;;
1975;SDS011;988;48.016;7.800;2022-09-29T07:32:42;26.67;;;25.20;;
1975;SDS011;988;48.016;7.800;2022-09-29T07:35:07;26.90;;;25.50;;
1975;SDS011;988;48.016;7.800;2022-09-29T07:37:33;26.33;;;24.93;;
1975;SDS011;988;48.016;7.800;2022-09-29T07:39:59;27.90;;;26.50;;
1975;SDS011;988;48.016;7.800;2022-09-29T07:42:26;28.60;;;27.00;;
1975;SDS011;988;48.016;7.800;2022-09-29T07:44:53;27.43;;;25.83;;
1975;SDS011;988;48.016;7.800;2022-09-29T07:47:19;29.27;;;27.30;;
1975;SDS011;988;48.016;7.800;2022-09-29T07:49:45;29.27;;;27.53;;
1975;SDS011;988;48.016;7.800;2022-09-29T07:52:11;29.40;;;27.90;;
1975;SDS011;988;48.016;7.800;2022-09-29T07:54:37;29.00;;;27.40;;
1975;SDS011;988;48.016;7.800;2022-09-29T07:57:03;28.73;;;27.03;;
1975;SDS011;988;48.016;7.800;2022-09-29T07:59:29;28.17;;;26.50;;
1975;SDS011;988;48.016;7.800;2022-09-29T08:01:56;28.63;;;27.03;;
1975;SDS011;988;48.016;7.800;2022-09-29T08:04:22;28.60;;;26.90;;
1975;SDS011;988;48.016;7.800;2022-09-29T08:06:48;28.20;;;26.80;;
1975;SDS011;988;48.016;7.800;2022-09-29T08:09:14;28.80;;;27.13;;
1975;SDS011;988;48.016;7.800;2022-09-29T08:11:40;28.40;;;26.80;;
1975;SDS011;988;48.016;7.800;2022-09-29T08:14:07;26.90;;;25.30;;
1975;SDS011;988;48.016;7.800;2022-09-29T08:16:35;29.10;;;27.50;;
1975;SDS011;988;48.016;7.800;2022-09-29T08:19:02;26.60;;;25.20;;
1975;SDS011;988;48.016;7.800;2022-09-29T08:21:29;26.90;;;25.17;;
1975;SDS011;988;48.016;7.800;2022-09-29T08:23:56;26.20;;;24.90;;
1975;SDS011;988;48.016;7.800;2022-09-29T08:26:21;30.60;;;28.80;;
1975;SDS011;988;48.016;7.800;2022-09-29T08:28:47;32.07;;;30.17;;
1975;SDS011;988;48.016;7.800;2022-09-29T08:31:15;28.17;;;26.47;;
1975;SDS011;988;48.016;7.800;2022-09-29T08:33:44;27.60;;;26.20;;
1975;SDS011;988;48.016;7.800;2022-09-29T08:36:09;29.50;;;28.00;;
1975;SDS011;988;48.016;7.800;2022-09-29T08:38:42;29.17;;;27.23;;
1975;SDS011;988;48.016;7.800;2022-09-29T08:41:14;28.23;;;26.73;;
1975;SDS011;988;48.016;7.800;2022-09-29T08:44:21;28.77;;;27.27;;
1975;SDS011;988;48.016;7.800;2022-09-29T08:46:53;28.07;;;26.60;;
1975;SDS011;988;48.016;7.800;2022-09-29T08:49:23;28.40;;;26.60;;
1975;SDS011;988;48.016;7.800;2022-09-29T08:51:56;30.23;;;28.30;;
1975;SDS011;988;48.016;7.800;2022-09-29T08:57:03;28.57;;;26.97;;
1975;SDS011;988;48.016;7.800;2022-09-29T08:59:30;28.93;;;27.40;;
1975;SDS011;988;48.016;7.800;2022-09-29T09:07:41;28.90;;;27.00;;
1975;SDS011;988;48.016;7.800;2022-09-29T09:19:26;29.53;;;28.00;;
1975;SDS011;988;48.016;7.800;2022-09-29T09:24:48;30.10;;;28.50;;
1975;SDS011;988;48.016;7.800;2022-09-29T09:27:18;30.17;;;27.83;;
1975;SDS011;988;48.016;7.800;2022-09-29T09:29:48;30.67;;;28.87;;
1975;SDS011;988;48.016;7.800;2022-09-29T09:32:26;31.87;;;29.97;;
1975;SDS011;988;48.016;7.800;2022-09-29T09:35:40;31.23;;;29.53;;
1975;SDS011;988;48.016;7.800;2022-09-29T09:37:43;31.43;;;29.40;;
1975;SDS011;988;48.016;7.800;2022-09-29T09:42:43;31.13;;;28.93;;
1975;SDS011;988;48.016;7.800;2022-09-29T09:48:06;30.30;;;28.40;;
1975;SDS011;988;48.016;7.800;2022-09-29T09:50:39;29.43;;;27.63;;
1975;SDS011;988;48.016;7.800;2022-09-29T09:53:14;29.20;;;27.60;;
1975;SDS011;988;48.016;7.800;2022-09-29T09:55:52;29.87;;;28.27;;
1975;SDS011;988;48.016;7.800;2022-09-29T09:58:50;29.57;;;27.87;;
1975;SDS011;988;48.016;7.800;2022-09-29T10:01:33;28.37;;;26.77;;
1975;SDS011;988;48.016;7.800;2022-09-29T10:03:58;30.47;;;28.67;;
1975;SDS011;988;48.016;7.800;2022-09-29T10:06:25;29.50;;;27.80;;
1975;SDS011;988;48.016;7.800;2022-09-29T10:08:51;29.20;;;27.60;;
1975;SDS011;988;48.016;7.800;2022-09-29T10:13:45;30.87;;;29.30;;
1975;SDS011;988;48.016;7.800;2022-09-29T10:16:15;30.40;;;28.80;;
1975;SDS011;988;48.016;7.800;2022-09-29T10:18:45;28.70;;;27.20;;
1975;SDS011;988;48.016;7.800;2022-09-29T10:24:00;29.50;;;27.90;;
1975;SDS011;988;48.016;7.800;2022-09-29T10:26:28;29.50;;;27.90;;
1975;SDS011;988;48.016;7.800;2022-09-29T10:29:17;29.07;;;27.47;;
1975;SDS011;988;48.016;7.800;2022-09-29T10:34:25;28.63;;;26.93;;
1975;SDS011;988;48.016;7.800;2022-09-29T10:37:06;28.77;;;26.97;;
1975;SDS011;988;48.016;7.800;2022-09-29T10:39:47;26.73;;;25.33;;
1975;SDS011;988;48.016;7.800;2022-09-29T10:44:49;28.27;;;26.67;;
1975;SDS011;988;48.016;7.800;2022-09-29T10:47:24;27.10;;;25.60;;
1975;SDS011;988;48.016;7.800;2022-09-29T10:50:06;29.77;;;28.17;;
1975;SDS011;988;48.016;7.800;2022-09-29T10:52:55;27.17;;;25.80;;
1975;SDS011;988;48.016;7.800;2022-09-29T10:55:26;27.33;;;25.93;;
1975;SDS011;988;48.016;7.800;2022-09-29T10:57:57;27.43;;;25.80;;
1975;SDS011;988;48.016;7.800;2022-09-29T11:00:33;28.00;;;26.50;;
1975;SDS011;988;48.016;7.800;2022-09-29T11:03:02;27.83;;;26.33;;
1975;SDS011;988;48.016;7.800;2022-09-29T11:05:32;28.40;;;26.70;;
1975;SDS011;988;48.016;7.800;2022-09-29T11:07:59;29.50;;;27.60;;
1975;SDS011;988;48.016;7.800;2022-09-29T11:10:31;27.77;;;26.23;;
1975;SDS011;988;48.016;7.800;2022-09-29T11:13:13;28.17;;;26.43;;
1975;SDS011;988;48.016;7.800;2022-09-29T11:15:51;28.30;;;26.70;;
1975;SDS011;988;48.016;7.800;2022-09-29T11:18:24;29.27;;;27.67;;
1975;SDS011;988;48.016;7.800;2022-09-29T11:21:30;29.40;;;27.90;;
1975;SDS011;988;48.016;7.800;2022-09-29T11:29:06;30.77;;;29.07;;
1975;SDS011;988;48.016;7.800;2022-09-29T11:31:47;29.57;;;28.07;;
1975;SDS011;988;48.016;7.800;2022-09-29T11:39:44;29.10;;;27.50;;
1975;SDS011;988;48.016;7.800;2022-09-29T11:45:15;25.20;;;23.73;;
1975;SDS011;988;48.016;7.800;2022-09-29T11:50:48;24.17;;;22.60;;
1975;SDS011;988;48.016;7.800;2022-09-29T11:53:36;23.30;;;22.10;;
1975;SDS011;988;48.016;7.800;2022-09-29T11:56:43;24.27;;;22.87;;
1975;SDS011;988;48.016;7.800;2022-09-29T12:05:23;29.43;;;27.73;;
1975;SDS011;988;48.016;7.800;2022-09-29T12:07:53;32.80;;;31.00;;
1975;SDS011;988;48.016;7.800;2022-09-29T12:10:37;29.53;;;28.03;;
1975;SDS011;988;48.016;7.800;2022-09-29T12:16:20;29.00;;;27.50;;
1975;SDS011;988;48.016;7.800;2022-09-29T12:18:55;28.30;;;26.90;;
1975;SDS011;988;48.016;7.800;2022-09-29T12:21:29;30.40;;;28.63;;
1975;SDS011;988;48.016;7.800;2022-09-29T12:23:58;30.50;;;28.77;;
1975;SDS011;988;48.016;7.800;2022-09-29T12:26:27;24.10;;;22.80;;
1975;SDS011;988;48.016;7.800;2022-09-29T12:29:07;23.53;;;22.33;;
1975;SDS011;988;48.016;7.800;2022-09-29T12:31:50;24.27;;;22.87;;
1975;SDS011;988;48.016;7.800;2022-09-29T12:34:32;23.40;;;22.00;;
1975;SDS011;988;48.016;7.800;2022-09-29T12:37:12;23.37;;;22.00;;
1975;SDS011;988;48.016;7.800;2022-09-29T12:42:53;28.57;;;27.07;;
1975;SDS011;988;48.016;7.800;2022-09-29T12:48:26;29.70;;;28.10;;
1975;SDS011;988;48.016;7.800;2022-09-29T12:59:05;29.07;;;27.27;;
1975;SDS011;988;48.016;7.800;2022-09-29T13:01:38;28.83;;;27.33;;
1975;SDS011;988;48.016;7.800;2022-09-29T13:12:43;28.87;;;27.37;;
1975;SDS011;988;48.016;7.800;2022-09-29T13:18:47;28.20;;;26.70;;
1975;SDS011;988;48.016;7.800;2022-09-29T13:21:45;28.67;;;27.17;;
1975;SDS011;988;48.016;7.800;2022-09-29T13:29:43;28.37;;;26.67;;
1975;SDS011;988;48.016;7.800;2022-09-29T13:32:12;27.70;;;26.30;;
1975;SDS011;988;48.016;7.800;2022-09-29T13:34:39;29.40;;;27.90;;
1975;SDS011;988;48.016;7.800;2022-09-29T13:39:36;28.70;;;27.13;;
1975;SDS011;988;48.016;7.800;2022-09-29T13:42:25;29.23;;;27.73;;
1975;SDS011;988;48.016;7.800;2022-09-29T13:48:01;27.67;;;26.27;;
1975;SDS011;988;48.016;7.800;2022-09-29T13:50:48;27.67;;;26.27;;
1975;SDS011;988;48.016;7.800;2022-09-29T13:58:21;27.23;;;25.83;;
1975;SDS011;988;48.016;7.800;2022-09-29T14:00:52;27.13;;;25.73;;
1975;SDS011;988;48.016;7.800;2022-09-29T14:03:24;26.67;;;25.27;;
1975;SDS011;988;48.016;7.800;2022-09-29T14:06:14;27.07;;;25.47;;
1975;SDS011;988;48.016;7.800;2022-09-29T14:08:43;27.40;;;26.00;;
1975;SDS011;988;48.016;7.800;2022-09-29T14:11:26;27.60;;;26.00;;
1975;SDS011;988;48.016;7.800;2022-09-29T14:14:06;27.50;;;25.90;;
1975;SDS011;988;48.016;7.800;2022-09-29T14:19:45;26.60;;;25.13;;
1975;SDS011;988;48.016;7.800;2022-09-29T14:35:13;22.77;;;21.57;;
1975;SDS011;988;48.016;7.800;2022-09-29T14:37:41;22.87;;;21.57;;
1975;SDS011;988;48.016;7.800;2022-09-29T14:40:08;28.00;;;26.20;;
1975;SDS011;988;48.016;7.800;2022-09-29T14:43:07;27.13;;;25.73;;
1975;SDS011;988;48.016;7.800;2022-09-29T14:52:45;28.80;;;27.00;;
1975;SDS011;988;48.016;7.800;2022-09-29T14:57:29;28.00;;;26.60;;
1975;SDS011;988;48.016;7.800;2022-09-29T15:02:42;27.60;;;26.10;;
1975;SDS011;988;48.016;7.800;2022-09-29T15:05:32;21.83;;;20.57;;
1975;SDS011;988;48.016;7.800;2022-09-29T15:07:59;21.90;;;20.80;;
1975;SDS011;988;48.016;7.800;2022-09-29T15:10:27;22.30;;;21.10;;
1975;SDS011;988;48.016;7.800;2022-09-29T15:13:14;21.60;;;20.40;;
1975;SDS011;988;48.016;7.800;2022-09-29T15:15:46;22.10;;;20.80;;
1975;SDS011;988;48.016;7.800;2022-09-29T15:21:20;26.10;;;24.70;;
1975;SDS011;988;48.016;7.800;2022-09-29T15:24:05;26.40;;;25.10;;
1975;SDS011;988;48.016;7.800;2022-09-29T15:26:55;26.47;;;25.17;;
1975;SDS011;988;48.016;7.800;2022-09-29T15:29:28;27.10;;;25.63;;
1975;SDS011;988;48.016;7.800;2022-09-29T15:31:54;25.13;;;23.83;;
1975;SDS011;988;48.016;7.800;2022-09-29T15:34:21;25.70;;;24.20;;
1975;SDS011;988;48.016;7.800;2022-09-29T15:36:50;25.20;;;23.83;;
1975;SDS011;988;48.016;7.800;2022-09-29T15:41:59;26.17;;;24.87;;
1975;SDS011;988;48.016;7.800;2022-09-29T15:44:27;24.77;;;23.30;;
1975;SDS011;988;48.016;7.800;2022-09-29T15:46:56;25.00;;;23.70;;
1975;SDS011;988;48.016;7.800;2022-09-29T15:52:02;27.77;;;26.27;;
1975;SDS011;988;48.016;7.800;2022-09-29T15:54:33;24.57;;;23.37;;
1975;SDS011;988;48.016;7.800;2022-09-29T15:57:03;25.37;;;23.93;;
1975;SDS011;988;48.016;7.800;2022-09-29T15:59:49;22.80;;;21.60;;
1975;SDS011;988;48.016;7.800;2022-09-29T16:02:23;19.60;;;18.50;;
1975;SDS011;988;48.016;7.800;2022-09-29T16:05:01;21.57;;;20.37;;
1975;SDS011;988;48.016;7.800;2022-09-29T16:07:30;19.50;;;18.40;;
1975;SDS011;988;48.016;7.800;2022-09-29T16:10:04;20.43;;;19.23;;
1975;SDS011;988;48.016;7.800;2022-09-29T16:12:34;22.90;;;21.40;;
1975;SDS011;988;48.016;7.800;2022-09-29T16:15:02;21.27;;;20.07;;
1975;SDS011;988;48.016;7.800;2022-09-29T16:17:28;24.23;;;22.50;;
1975;SDS011;988;48.016;7.800;2022-09-29T16:19:54;22.03;;;20.73;;
1975;SDS011;988;48.016;7.800;2022-09-29T16:22:24;22.33;;;21.13;;
1975;SDS011;988;48.016;7.800;2022-09-29T16:24:52;22.00;;;20.60;;
1975;SDS011;988;48.016;7.800;2022-09-29T16:27:37;24.27;;;22.33;;
1975;SDS011;988;48.016;7.800;2022-09-29T16:30:17;22.40;;;21.10;;
1975;SDS011;988;48.016;7.800;2022-09-29T16:32:52;23.27;;;21.77;;
1975;SDS011;988;48.016;7.800;2022-09-29T16:41:06;22.80;;;21.50;;
1975;SDS011;988;48.016;7.800;2022-09-29T16:43:39;20.27;;;19.10;;
1975;SDS011;988;48.016;7.800;2022-09-29T16:46:09;19.57;;;18.37;;
1975;SDS011;988;48.016;7.800;2022-09-29T16:48:41;18.40;;;17.20;;
1975;SDS011;988;48.016;7.800;2022-09-29T16:51:16;18.37;;;17.37;;
1975;SDS011;988;48.016;7.800;2022-09-29T16:53:43;19.17;;;18.27;;
1975;SDS011;988;48.016;7.800;2022-09-29T16:59:00;21.50;;;20.50;;
1975;SDS011;988;48.016;7.800;2022-09-29T17:01:40;21.67;;;20.47;;
1975;SDS011;988;48.016;7.800;2022-09-29T17:04:07;20.73;;;19.73;;
1975;SDS011;988;48.016;7.800;2022-09-29T17:06:34;21.13;;;20.00;;
1975;SDS011;988;48.016;7.800;2022-09-29T17:09:00;20.10;;;19.10;;
1975;SDS011;988;48.016;7.800;2022-09-29T17:11:29;21.97;;;20.67;;
1975;SDS011;988;48.016;7.800;2022-09-29T17:13:55;19.80;;;18.60;;
1975;SDS011;988;48.016;7.800;2022-09-29T17:16:22;20.13;;;18.90;;
1975;SDS011;988;48.016;7.800;2022-09-29T17:18:49;20.07;;;18.97;;
1975;SDS011;988;48.016;7.800;2022-09-29T17:21:17;20.07;;;19.07;;
1975;SDS011;988;48.016;7.800;2022-09-29T17:23:43;22.13;;;21.03;;
1975;SDS011;988;48.016;7.800;2022-09-29T17:26:16;18.13;;;17.17;;
1975;SDS011;988;48.016;7.800;2022-09-29T17:29:02;18.53;;;17.40;;
1975;SDS011;988;48.016;7.800;2022-09-29T17:31:28;18.63;;;17.63;;
1975;SDS011;988;48.016;7.800;2022-09-29T17:33:54;22.77;;;21.00;;
1975;SDS011;988;48.016;7.800;2022-09-29T17:36:36;22.43;;;20.57;;
1975;SDS011;988;48.016;7.800;2022-09-29T17:39:03;22.83;;;21.43;;
1975;SDS011;988;48.016;7.800;2022-09-29T17:41:28;28.10;;;25.60;;
1975;SDS011;988;48.016;7.800;2022-09-29T17:43:54;26.03;;;24.20;;
1975;SDS011;988;48.016;7.800;2022-09-29T17:46:19;31.20;;;28.50;;
1975;SDS011;988;48.016;7.800;2022-09-29T17:48:45;34.93;;;31.47;;
1975;SDS011;988;48.016;7.800;2022-09-29T17:51:12;24.83;;;22.97;;
1975;SDS011;988;48.016;7.800;2022-09-29T17:53:40;24.23;;;22.20;;
1975;SDS011;988;48.016;7.800;2022-09-29T17:56:09;31.93;;;29.03;;
1975;SDS011;988;48.016;7.800;2022-09-29T17:58:48;20.50;;;19.30;;
1975;SDS011;988;48.016;7.800;2022-09-29T18:01:15;45.00;;;40.40;;
1975;SDS011;988;48.016;7.800;2022-09-29T18:03:44;25.17;;;23.33;;
1975;SDS011;988;48.016;7.800;2022-09-29T18:06:12;22.10;;;20.50;;
1975;SDS011;988;48.016;7.800;2022-09-29T18:08:45;22.60;;;21.27;;
1975;SDS011;988;48.016;7.800;2022-09-29T18:11:22;20.13;;;18.83;;
1975;SDS011;988;48.016;7.800;2022-09-29T18:13:49;20.70;;;19.37;;
1975;SDS011;988;48.016;7.800;2022-09-29T18:16:16;21.10;;;19.80;;
1975;SDS011;988;48.016;7.800;2022-09-29T18:18:44;21.90;;;20.40;;